UACC/TSE METAR and TAF weather

Enter ICAO airport designator
Station Type Date Time Source
UACC METAR 2019/02/21 15:30 UTC NOAA

UACC 211530Z 22008MPS CAVOK M13/M14 Q1029 R22/35//50 NOSIG RMK QFE740/0987


Station Type Date Time Source
UACC Decoded METAR 2019/02/21 15:30 UTC NOAA

Astana, Kazakhstan (UACC) 51-12N 071-27E
Feb 21, 2019 - 10:30 AM EST / 2019.02.21 1530 UTC
Wind: from the SW (220 degrees) at 18 MPH (16 KT):0
Visibility: greater than 7 mile(s):0
Temperature: 8 F (-13 C)
Windchill: -11 F (-24 C):2
Dew Point: 6 F (-14 C)
Relative Humidity: 92%
Pressure (altimeter): 30.39 in. Hg (1029 hPa)
ob: UACC 211530Z 22008MPS CAVOK M13/M14 Q1029 R22/35//50 NOSIG RMK QFE740/0987
cycle: 15

Station Type Date Time Source
UACC TAF 2019/02/21 12:18 UTC NOAA

TAF UACC 211100Z 2112/2212 22006MPS 9999 BKN011 BKN030 TXM07/2209Z TNM16/2201Z
TEMPO 2112/2116 23010MPS 5000 -SN DRSN


Example: see airport list